Time;durP1;ratioP1;P1;durP2;ratioP2;P2;SDS_P1;SDS_P2;PMS_P1;PMS_P2;Temp;Humidity;BMP_temperature;BMP_pressure;BME280_temperature;BME280_humidity;BME280_pressure;Samples;Min_cycle;Max_cycle;Signal;HPM_P1;HPM_P2
2021/03/16 00:02:16;;;;;;;13.20;2.83;;;5.80;77.50;;;;;;5114549;28;20038;-36
2021/03/16 00:04:42;;;;;;;21.30;3.88;;;5.80;78.00;;;;;;5114331;28;20406;-36
2021/03/16 00:07:08;;;;;;;28.23;4.50;;;5.70;77.40;;;;;;5112824;28;20031;-36
2021/03/16 00:09:34;;;;;;;19.35;4.72;;;5.80;77.10;;;;;;5114512;28;20110;-36
2021/03/16 00:12:00;;;;;;;17.23;3.78;;;5.80;77.20;;;;;;5114374;28;20106;-36
2021/03/16 00:14:26;;;;;;;22.50;3.92;;;5.80;77.20;;;;;;5114479;28;20051;-37
2021/03/16 00:16:51;;;;;;;18.17;3.15;;;5.70;77.40;;;;;;5114184;28;20023;-37
2021/03/16 00:19:21;;;;;;;15.95;4.32;;;5.70;77.40;;;;;;5114134;28;20023;-36
2021/03/16 00:21:46;;;;;;;21.67;3.35;;;5.70;76.90;;;;;;5114177;28;20020;-36
2021/03/16 00:24:12;;;;;;;16.90;3.00;;;5.70;77.40;;;;;;5114080;28;20022;-36
2021/03/16 00:26:38;;;;;;;15.65;2.80;;;5.70;77.40;;;;;;5113866;28;20035;-36
2021/03/16 00:29:04;;;;;;;25.42;3.42;;;5.80;76.90;;;;;;5114105;28;20023;-36
2021/03/16 00:31:30;;;;;;;17.42;3.00;;;5.70;76.90;;;;;;5114168;28;20035;-37
2021/03/16 00:33:55;;;;;;;27.48;3.17;;;5.70;76.90;;;;;;5114102;28;20075;-36
2021/03/16 00:36:21;;;;;;;21.08;3.35;;;5.70;76.90;;;;;;5114123;28;20095;-36
2021/03/16 00:38:47;;;;;;;20.48;3.47;;;5.80;76.60;;;;;;5113966;28;20019;-36
2021/03/16 00:41:12;;;;;;;15.35;4.72;;;5.70;76.50;;;;;;5114059;28;20034;-36
2021/03/16 00:43:38;;;;;;;21.38;3.55;;;5.80;75.90;;;;;;5113585;28;20051;-37
2021/03/16 00:46:04;;;;;;;18.08;3.20;;;5.80;76.20;;;;;;5113666;28;20027;-36
2021/03/16 00:48:29;;;;;;;20.20;4.05;;;5.80;75.30;;;;;;5112110;28;20052;-36
2021/03/16 00:50:55;;;;;;;22.02;3.83;;;5.80;75.60;;;;;;5113819;28;20030;-36
2021/03/16 00:53:22;;;;;;;21.15;4.00;;;5.90;75.40;;;;;;5113454;28;20105;-37
2021/03/16 00:55:47;;;;;;;19.75;4.72;;;5.90;75.60;;;;;;5113503;28;20023;-36
2021/03/16 00:58:13;;;;;;;26.15;3.45;;;5.90;75.40;;;;;;5113528;28;20032;-37
2021/03/16 01:00:39;;;;;;;29.45;5.80;;;5.90;75.80;;;;;;5113522;28;20467;-36
2021/03/16 01:03:04;;;;;;;24.13;2.65;;;5.80;76.30;;;;;;5113723;28;20020;-36
2021/03/16 01:05:31;;;;;;;28.55;5.68;;;5.80;76.70;;;;;;5113593;28;20027;-36
2021/03/16 01:07:57;;;;;;;14.68;3.45;;;5.90;76.80;;;;;;5113469;28;20023;-37
2021/03/16 01:10:24;;;;;;;14.57;4.78;;;5.80;75.10;;;;;;5113531;28;20036;-37
2021/03/16 01:12:50;;;;;;;25.13;4.70;;;5.80;75.00;;;;;;5112236;28;20027;-37
2021/03/16 01:15:16;;;;;;;21.85;3.10;;;6.10;74.30;;;;;;5113722;28;20058;-36
2021/03/16 01:17:42;;;;;;;19.40;3.17;;;6.00;75.00;;;;;;5113702;28;20110;-37
2021/03/16 01:20:16;;;;;;;16.85;3.22;;;6.00;75.10;;;;;;5113889;28;20153;-36
2021/03/16 01:22:42;;;;;;;21.50;4.13;;;5.90;75.50;;;;;;5113745;28;20068;-37
2021/03/16 01:25:08;;;;;;;18.58;5.22;;;6.10;75.10;;;;;;5113345;28;20531;-36
2021/03/16 01:27:34;;;;;;;23.60;3.78;;;5.90;75.70;;;;;;5113144;28;20035;-37
2021/03/16 01:30:00;;;;;;;15.48;3.72;;;5.80;75.90;;;;;;5113352;28;20459;-36
2021/03/16 01:32:26;;;;;;;17.17;3.28;;;6.10;74.90;;;;;;5113278;28;20092;-37
2021/03/16 01:34:51;;;;;;;22.95;3.03;;;6.10;74.80;;;;;;5113333;28;20024;-37
2021/03/16 01:37:17;;;;;;;17.40;5.10;;;6.20;74.40;;;;;;5113244;28;20031;-36
2021/03/16 01:39:44;;;;;;;19.90;4.38;;;6.10;74.80;;;;;;5113443;28;20085;-37
2021/03/16 01:42:10;;;;;;;19.33;4.07;;;6.00;74.90;;;;;;5113382;28;20039;-36
2021/03/16 01:44:36;;;;;;;19.10;3.22;;;6.00;75.10;;;;;;5113216;28;20043;-36
2021/03/16 01:47:03;;;;;;;19.95;3.58;;;5.90;75.10;;;;;;5112962;28;20082;-37
2021/03/16 01:49:29;;;;;;;19.35;2.78;;;5.90;75.50;;;;;;5111875;28;20039;-36
2021/03/16 01:51:55;;;;;;;20.52;3.40;;;5.90;75.70;;;;;;5113031;28;20024;-36
2021/03/16 01:54:21;;;;;;;13.65;2.10;;;5.80;75.90;;;;;;5113697;28;20372;-36
2021/03/16 01:56:48;;;;;;;18.40;3.40;;;5.90;72.60;;;;;;5117133;28;20024;-36
2021/03/16 01:59:17;;;;;;;21.40;2.67;;;6.00;71.80;;;;;;5116934;28;20076;-40
2021/03/16 02:01:44;;;;;;;16.48;2.55;;;6.10;71.90;;;;;;5116538;28;20023;-36
2021/03/16 02:04:12;;;;;;;13.75;2.60;;;6.20;71.50;;;;;;5116772;28;20425;-37
2021/03/16 02:06:47;;;;;;;14.90;3.15;;;6.20;71.90;;;;;;5116370;28;20012;-37
2021/03/16 02:09:28;;;;;;;20.70;3.42;;;6.10;73.00;;;;;;5117105;28;20055;-35
2021/03/16 02:12:01;;;;;;;22.25;3.00;;;6.10;72.80;;;;;;5116304;28;20027;-35
2021/03/16 02:14:34;;;;;;;17.38;2.70;;;6.10;73.40;;;;;;5117062;28;20024;-36
2021/03/16 02:17:07;;;;;;;19.73;2.78;;;6.20;73.20;;;;;;5116570;28;20031;-36
2021/03/16 02:20:15;;;;;;;13.25;3.90;;;6.10;73.60;;;;;;5116099;28;20182;-36
2021/03/16 02:22:44;;;;;;;32.17;3.60;;;6.10;73.50;;;;;;5115879;28;20026;-36
2021/03/16 02:25:55;;;;;;;16.35;2.22;;;6.10;73.50;;;;;;5115923;28;20012;-36
2021/03/16 02:28:48;;;;;;;11.73;2.17;;;6.10;72.50;;;;;;5113794;28;20038;-36
2021/03/16 02:31:17;;;;;;;21.65;4.65;;;6.20;72.60;;;;;;5115978;28;20542;-36
2021/03/16 02:33:44;;;;;;;21.27;2.30;;;6.10;73.00;;;;;;5115045;28;20066;-36
2021/03/16 02:36:12;;;;;;;11.68;2.55;;;5.90;73.00;;;;;;5115905;28;20016;-36
2021/03/16 02:38:46;;;;;;;11.80;3.80;;;6.00;72.60;;;;;;5116103;28;20055;-36
2021/03/16 02:41:15;;;;;;;27.85;2.55;;;6.10;72.10;;;;;;5114435;28;20024;-36
2021/03/16 02:43:42;;;;;;;19.42;2.65;;;6.10;72.10;;;;;;5115678;28;20062;-36
2021/03/16 02:46:08;;;;;;;13.45;1.90;;;6.00;72.40;;;;;;5116188;28;20027;-36
2021/03/16 02:48:36;;;;;;;13.10;2.88;;;6.00;72.80;;;;;;5115636;28;20039;-36
2021/03/16 02:51:22;;;;;;;12.65;1.85;;;6.00;72.80;;;;;;5116329;28;20034;-36
2021/03/16 02:53:49;;;;;;;10.00;1.92;;;5.90;73.40;;;;;;5115800;27;20098;-36
2021/03/16 02:56:17;;;;;;;23.45;5.25;;;5.80;73.90;;;;;;5115812;28;20032;-36
2021/03/16 02:58:45;;;;;;;12.77;3.05;;;5.80;74.20;;;;;;5114292;28;20478;-36
2021/03/16 03:01:12;;;;;;;9.77;3.80;;;6.00;74.10;;;;;;5115498;28;20042;-36
2021/03/16 03:03:40;;;;;;;14.18;2.45;;;6.00;74.40;;;;;;5115648;28;20027;-36
2021/03/16 03:06:07;;;;;;;20.92;3.08;;;5.90;74.60;;;;;;5115628;28;20047;-36
2021/03/16 03:08:34;;;;;;;18.02;2.92;;;5.90;75.20;;;;;;5115334;28;20475;-36
2021/03/16 03:10:59;;;;;;;17.63;3.08;;;5.80;75.70;;;;;;5115312;28;20020;-36
2021/03/16 03:13:25;;;;;;;8.15;2.08;;;5.80;75.90;;;;;;5114017;28;20421;-36
2021/03/16 03:15:52;;;;;;;12.18;2.35;;;5.80;76.10;;;;;;5115199;28;20441;-36
2021/03/16 03:18:18;;;;;;;20.30;3.78;;;5.80;76.40;;;;;;5115065;28;20027;-37
2021/03/16 03:20:44;;;;;;;12.93;2.42;;;5.70;76.70;;;;;;5115145;28;20021;-36
2021/03/16 03:23:26;;;;;;;10.77;2.38;;;5.80;76.60;;;;;;5113745;28;20360;-36
2021/03/16 03:25:58;;;;;;;16.67;2.95;;;5.80;76.40;;;;;;5114028;28;20027;-36
2021/03/16 03:28:29;;;;;;;17.05;2.92;;;5.60;77.40;;;;;;5114833;28;20104;-36
2021/03/16 03:30:59;;;;;;;21.73;4.05;;;5.80;76.70;;;;;;5114892;28;20097;-36
2021/03/16 03:33:27;;;;;;;32.00;5.35;;;5.70;77.20;;;;;;5115182;28;20011;-36
2021/03/16 03:35:53;;;;;;;12.30;2.78;;;5.60;77.60;;;;;;5115074;28;20039;-36
2021/03/16 03:38:21;;;;;;;15.98;5.03;;;5.70;77.50;;;;;;5114974;28;20471;-36
2021/03/16 03:40:50;;;;;;;15.50;3.17;;;5.60;77.40;;;;;;5114791;28;20023;-36
2021/03/16 03:43:17;;;;;;;17.75;3.53;;;5.70;77.40;;;;;;5114982;28;20036;-36
2021/03/16 03:45:45;;;;;;;17.30;3.95;;;5.80;77.00;;;;;;5114703;28;20024;-36
2021/03/16 03:48:13;;;;;;;14.65;2.67;;;5.60;77.80;;;;;;5114414;28;20040;-36
2021/03/16 03:50:40;;;;;;;27.33;3.63;;;5.60;78.10;;;;;;5114895;28;20028;-36
2021/03/16 03:53:08;;;;;;;17.88;3.65;;;5.60;78.30;;;;;;5114793;28;20072;-36
2021/03/16 03:55:35;;;;;;;17.85;4.55;;;5.60;78.40;;;;;;5114407;28;20463;-36
2021/03/16 03:58:02;;;;;;;13.32;2.47;;;5.70;77.90;;;;;;5114471;28;20464;-37
2021/03/16 04:00:29;;;;;;;8.32;2.08;;;5.70;77.80;;;;;;5114733;28;20031;-36
2021/03/16 04:02:55;;;;;;;27.13;3.97;;;5.70;78.10;;;;;;5114375;28;20027;-36
2021/03/16 04:05:22;;;;;;;11.65;3.33;;;5.80;78.10;;;;;;5114543;28;20424;-36
2021/03/16 04:07:50;;;;;;;18.55;2.97;;;5.60;78.20;;;;;;5114071;28;20088;-36
2021/03/16 04:10:16;;;;;;;20.00;4.40;;;5.80;78.30;;;;;;5114128;28;20379;-36
2021/03/16 04:12:42;;;;;;;15.05;2.45;;;5.70;77.90;;;;;;5114140;28;20054;-36
2021/03/16 04:15:17;;;;;;;16.98;3.80;;;5.60;78.80;;;;;;5114086;28;20019;-36
2021/03/16 04:17:45;;;;;;;10.20;3.00;;;5.60;78.90;;;;;;5114461;28;20020;-36
2021/03/16 04:20:13;;;;;;;16.02;2.45;;;5.60;78.70;;;;;;5114144;28;20369;-36
2021/03/16 04:22:40;;;;;;;12.10;2.80;;;5.60;78.70;;;;;;5114295;28;20061;-36
2021/03/16 04:25:06;;;;;;;15.15;3.63;;;5.70;77.90;;;;;;5113893;28;20023;-36
2021/03/16 04:27:33;;;;;;;11.27;2.08;;;5.80;77.70;;;;;;5113813;28;20046;-36
2021/03/16 04:29:58;;;;;;;13.15;2.03;;;5.80;77.30;;;;;;5112643;28;20371;-36
2021/03/16 04:32:24;;;;;;;13.27;3.53;;;5.70;77.10;;;;;;5114018;28;20020;-36
2021/03/16 04:34:49;;;;;;;15.48;3.47;;;5.60;77.30;;;;;;5114126;28;20086;-36
2021/03/16 04:37:15;;;;;;;9.70;2.92;;;5.70;76.90;;;;;;5114097;28;20467;-36
2021/03/16 04:39:41;;;;;;;10.18;2.10;;;5.80;76.10;;;;;;5112544;28;20023;-36
2021/03/16 04:42:07;;;;;;;15.80;2.83;;;5.80;75.80;;;;;;5113813;28;20024;-36
2021/03/16 04:44:33;;;;;;;14.63;3.92;;;5.70;75.10;;;;;;5113930;28;20032;-36
2021/03/16 04:46:58;;;;;;;10.07;2.10;;;5.70;75.40;;;;;;5113498;28;20073;-36
2021/03/16 04:49:24;;;;;;;17.48;3.75;;;5.70;74.80;;;;;;5113830;28;20024;-36
2021/03/16 04:51:50;;;;;;;16.83;2.70;;;5.70;74.20;;;;;;5113546;28;20024;-36
2021/03/16 04:54:15;;;;;;;11.38;2.42;;;5.80;73.90;;;;;;5113492;28;20139;-36
2021/03/16 04:56:41;;;;;;;10.88;3.30;;;5.90;72.60;;;;;;5113428;28;20023;-36
2021/03/16 04:59:07;;;;;;;11.18;2.67;;;5.70;73.20;;;;;;5113680;28;20027;-36
2021/03/16 05:01:33;;;;;;;17.55;1.95;;;5.80;73.10;;;;;;5112125;28;20482;-35
2021/03/16 05:03:59;;;;;;;13.85;2.20;;;5.80;73.30;;;;;;5113429;28;20024;-36
2021/03/16 05:06:24;;;;;;;8.93;2.78;;;5.70;73.90;;;;;;5113709;28;20028;-36
2021/03/16 05:08:50;;;;;;;17.45;4.53;;;5.70;74.30;;;;;;5113673;28;20114;-35
2021/03/16 05:11:16;;;;;;;17.63;2.17;;;5.80;74.90;;;;;;5113869;28;20475;-35
2021/03/16 05:13:42;;;;;;;12.57;2.25;;;5.80;74.70;;;;;;5113760;28;20019;-36
2021/03/16 05:16:09;;;;;;;13.70;2.10;;;5.60;75.60;;;;;;5113665;28;20455;-35
2021/03/16 05:18:34;;;;;;;21.15;2.28;;;5.70;76.00;;;;;;5111974;28;20026;-35
2021/03/16 05:21:00;;;;;;;21.75;3.17;;;5.60;75.80;;;;;;5113309;28;20032;-37
2021/03/16 05:23:26;;;;;;;12.98;2.97;;;5.60;76.10;;;;;;5113632;28;20467;-36
2021/03/16 05:25:51;;;;;;;17.85;2.17;;;5.60;76.10;;;;;;5113831;28;20036;-36
2021/03/16 05:28:17;;;;;;;12.55;2.28;;;5.70;76.00;;;;;;5111996;28;20122;-36
2021/03/16 05:30:43;;;;;;;15.52;2.45;;;5.70;75.90;;;;;;5115940;28;20020;-36
2021/03/16 05:33:08;;;;;;;16.88;3.67;;;5.60;76.10;;;;;;5115915;28;20019;-36
2021/03/16 05:35:34;;;;;;;8.10;2.95;;;5.70;76.30;;;;;;5117128;28;20024;-36
2021/03/16 05:38:00;;;;;;;19.23;2.30;;;5.60;76.30;;;;;;5117652;28;20388;-36
2021/03/16 05:40:33;;;;;;;13.82;1.83;;;5.60;76.70;;;;;;5117962;28;20379;-36
2021/03/16 05:42:59;;;;;;;13.35;2.00;;;5.70;76.40;;;;;;5117549;28;20024;-36
2021/03/16 05:45:26;;;;;;;10.95;3.13;;;5.70;76.30;;;;;;5116914;28;20035;-36
2021/03/16 05:47:52;;;;;;;16.08;2.55;;;5.70;76.40;;;;;;5116883;28;20054;-36
2021/03/16 05:50:20;;;;;;;14.52;2.35;;;5.60;76.80;;;;;;5116958;28;20024;-36
2021/03/16 05:52:46;;;;;;;7.65;2.10;;;5.60;77.10;;;;;;5116845;28;20030;-37
2021/03/16 05:55:13;;;;;;;9.65;2.45;;;5.70;76.80;;;;;;5116799;28;20023;-36
2021/03/16 05:57:40;;;;;;;10.60;2.78;;;5.70;76.80;;;;;;5116730;28;20030;-36
2021/03/16 06:00:07;;;;;;;13.65;3.15;;;5.60;77.10;;;;;;5116926;28;20471;-36
2021/03/16 06:02:36;;;;;;;12.98;2.30;;;5.70;76.70;;;;;;5116598;28;20026;-36
2021/03/16 06:05:03;;;;;;;18.73;4.85;;;5.80;76.80;;;;;;5117392;28;20024;-36
2021/03/16 06:07:29;;;;;;;17.08;2.50;;;5.80;76.70;;;;;;5116464;28;20035;-36
2021/03/16 06:09:55;;;;;;;14.77;2.63;;;5.70;77.10;;;;;;5116627;28;20027;-36
2021/03/16 06:12:36;;;;;;;9.68;2.20;;;5.80;77.40;;;;;;5116436;28;20019;-35
2021/03/16 06:15:17;;;;;;;;;;;5.80;77.40;;;;;;5117067;28;20023;-36
2021/03/16 06:17:47;;;;;;;10.30;2.13;;;5.80;77.50;;;;;;5116655;28;20286;-36
2021/03/16 06:20:28;;;;;;;14.02;2.63;;;5.80;77.80;;;;;;5116475;28;20509;-36
2021/03/16 06:23:14;;;;;;;17.40;3.00;;;5.80;77.90;;;;;;5116205;28;20046;-36
2021/03/16 06:25:42;;;;;;;12.45;2.75;;;5.80;78.20;;;;;;5116139;28;20039;-36
2021/03/16 06:28:10;;;;;;;22.38;2.83;;;5.80;78.20;;;;;;5116280;28;20027;-35
2021/03/16 06:30:37;;;;;;;11.88;2.20;;;5.70;78.60;;;;;;5115903;28;20077;-36
2021/03/16 06:33:04;;;;;;;15.05;2.40;;;5.70;78.70;;;;;;5115832;28;20027;-36
2021/03/16 06:35:30;;;;;;;11.27;2.85;;;5.80;78.30;;;;;;5116541;28;20063;-36
2021/03/16 06:38:09;;;;;;;20.80;3.42;;;5.70;78.40;;;;;;5116194;28;20027;-36
2021/03/16 06:40:35;;;;;;;8.88;2.42;;;5.80;78.00;;;;;;5114320;28;20390;-35
2021/03/16 06:43:11;;;;;;;22.30;3.63;;;5.80;77.90;;;;;;5116058;27;20168;-35
2021/03/16 06:45:39;;;;;;;15.57;2.47;;;5.90;76.70;;;;;;5115766;28;20114;-35
2021/03/16 06:48:24;;;;;;;14.10;2.88;;;5.90;76.70;;;;;;5114982;28;20035;-36
2021/03/16 06:50:51;;;;;;;11.48;1.67;;;6.00;74.30;;;;;;5115762;28;20024;-36
2021/03/16 06:53:20;;;;;;;10.55;2.40;;;6.10;72.70;;;;;;5115425;28;20019;-36
2021/03/16 06:55:56;;;;;;;11.15;1.95;;;6.10;71.80;;;;;;5115589;28;20016;-37
2021/03/16 06:58:27;;;;;;;13.93;4.53;;;6.20;72.60;;;;;;5114300;28;20048;-37
2021/03/16 07:01:24;;;;;;;7.82;2.42;;;6.10;73.60;;;;;;5097746;28;20119;-36
2021/03/16 07:03:50;;;;;;;12.98;2.20;;;6.10;74.80;;;;;;5107004;28;20038;-36
2021/03/16 07:06:21;;;;;;;13.20;3.28;;;5.90;76.00;;;;;;5116066;28;20370;-36
2021/03/16 07:08:50;;;;;;;7.38;2.08;;;5.80;77.00;;;;;;5114921;28;20027;-36
2021/03/16 07:11:19;;;;;;;15.27;4.43;;;5.80;77.30;;;;;;5115856;28;20107;-37
2021/03/16 07:13:46;;;;;;;8.85;2.55;;;5.80;77.80;;;;;;5115936;28;20023;-36
2021/03/16 07:16:12;;;;;;;12.82;2.72;;;5.80;77.90;;;;;;5115176;28;20023;-37
2021/03/16 07:18:42;;;;;;;10.45;2.55;;;5.80;77.20;;;;;;5115006;28;20483;-37
2021/03/16 07:21:23;;;;;;;17.20;4.40;;;5.80;77.80;;;;;;5115292;28;20376;-36
2021/03/16 07:23:52;;;;;;;18.65;3.00;;;5.90;76.90;;;;;;5115268;28;20490;-37
2021/03/16 07:26:17;;;;;;;9.80;2.42;;;5.90;76.40;;;;;;5115074;28;20422;-36
2021/03/16 07:28:47;;;;;;;21.50;5.28;;;6.10;74.60;;;;;;5114569;28;20020;-36
2021/03/16 07:31:13;;;;;;;9.80;2.33;;;6.00;74.80;;;;;;5115714;28;20328;-36
2021/03/16 07:33:40;;;;;;;9.60;2.10;;;6.10;75.10;;;;;;5114956;28;20023;-38
2021/03/16 07:36:07;;;;;;;12.68;2.63;;;6.10;75.30;;;;;;5114656;28;20047;-36
2021/03/16 07:38:35;;;;;;;15.40;2.15;;;6.10;75.90;;;;;;5115263;28;20028;-36
2021/03/16 07:41:03;;;;;;;14.02;3.00;;;6.30;75.40;;;;;;5115269;28;20081;-35
2021/03/16 07:43:37;;;;;;;19.42;2.25;;;6.50;74.90;;;;;;5115127;28;20042;-37
2021/03/16 07:46:21;;;;;;;17.40;2.42;;;6.30;75.00;;;;;;5114289;28;20148;-36
2021/03/16 07:48:52;;;;;;;19.77;2.83;;;6.60;74.20;;;;;;5114697;28;20036;-36
2021/03/16 07:51:23;;;;;;;13.25;4.53;;;6.80;72.70;;;;;;5114343;28;20042;-37
2021/03/16 07:53:57;;;;;;;6.45;2.42;;;6.90;72.60;;;;;;5114028;28;20324;-36
2021/03/16 07:56:28;;;;;;;14.00;1.65;;;7.30;71.70;;;;;;5114218;28;20089;-36
2021/03/16 07:58:55;;;;;;;8.05;1.92;;;7.30;70.30;;;;;;5113815;28;20016;-35
2021/03/16 08:01:21;;;;;;;9.18;3.10;;;7.70;69.70;;;;;;5114404;28;20320;-36
2021/03/16 08:03:47;;;;;;;18.63;4.55;;;7.40;70.60;;;;;;5113129;28;20024;-38
2021/03/16 08:06:23;;;;;;;17.20;2.33;;;7.20;71.60;;;;;;5114139;28;20094;-36
2021/03/16 08:08:49;;;;;;;11.85;2.25;;;7.00;73.50;;;;;;5113873;28;20026;-36
2021/03/16 08:11:16;;;;;;;4.22;1.70;;;6.50;75.40;;;;;;5114464;28;20080;-36
2021/03/16 08:13:52;;;;;;;8.93;2.10;;;6.50;76.10;;;;;;5113725;28;20016;-36
2021/03/16 08:16:18;;;;;;;14.55;2.83;;;6.70;75.40;;;;;;5114051;28;20035;-37
2021/03/16 08:18:44;;;;;;;7.63;2.45;;;6.80;74.50;;;;;;5112392;28;20028;-37
2021/03/16 08:21:11;;;;;;;14.27;2.70;;;6.80;74.30;;;;;;5113535;28;20046;-38
2021/03/16 08:23:38;;;;;;;9.98;2.20;;;6.90;73.30;;;;;;5113257;28;20024;-38
2021/03/16 08:26:05;;;;;;;11.82;2.72;;;7.40;71.70;;;;;;5113973;28;20032;-37
2021/03/16 08:28:35;;;;;;;18.33;2.95;;;8.00;68.80;;;;;;5114654;28;20111;-36
2021/03/16 08:31:02;;;;;;;18.10;3.90;;;8.30;66.70;;;;;;5112000;28;20047;-37
2021/03/16 08:33:29;;;;;;;12.02;1.92;;;9.00;63.80;;;;;;5113040;28;20023;-37
2021/03/16 08:35:57;;;;;;;10.20;2.20;;;9.50;61.60;;;;;;5113171;28;20479;-37
2021/03/16 08:38:28;;;;;;;5.55;1.83;;;9.50;60.10;;;;;;5113577;28;20023;-39
2021/03/16 08:41:10;;;;;;;4.28;1.52;;;9.40;57.20;;;;;;5113189;28;20027;-37
2021/03/16 08:43:37;;;;;;;4.63;1.33;;;10.00;55.10;;;;;;5113134;28;20027;-36
2021/03/16 08:46:03;;;;;;;5.75;1.15;;;10.00;54.40;;;;;;5112893;28;20068;-36
2021/03/16 08:48:33;;;;;;;9.02;1.85;;;9.90;52.30;;;;;;5112945;28;20079;-36
2021/03/16 08:50:59;;;;;;;8.85;1.63;;;10.20;52.00;;;;;;5111780;28;20015;-36
2021/03/16 08:53:25;;;;;;;5.57;1.05;;;10.50;52.30;;;;;;5113200;28;20030;-37
2021/03/16 08:55:52;;;;;;;10.85;2.40;;;11.80;49.50;;;;;;5112812;28;20020;-36
2021/03/16 08:58:19;;;;;;;10.23;1.10;;;11.70;48.10;;;;;;5112600;28;20032;-37
2021/03/16 09:00:46;;;;;;;7.28;1.30;;;10.40;51.50;;;;;;5112647;28;20027;-36
2021/03/16 09:03:12;;;;;;;5.78;1.30;;;10.30;52.70;;;;;;5113088;28;20031;-36
2021/03/16 09:05:39;;;;;;;8.27;1.58;;;9.90;52.80;;;;;;5117455;28;20092;-36
2021/03/16 09:08:05;;;;;;;8.25;1.73;;;9.30;55.80;;;;;;5117491;28;20379;-36
2021/03/16 09:10:32;;;;;;;12.65;2.33;;;9.10;56.90;;;;;;5117515;28;20085;-36
2021/03/16 09:12:58;;;;;;;4.72;1.58;;;8.70;58.10;;;;;;5117608;28;20360;-36
2021/03/16 09:15:29;;;;;;;12.75;2.67;;;8.50;59.70;;;;;;5117094;28;20073;-37
2021/03/16 09:17:59;;;;;;;9.65;2.17;;;8.40;61.20;;;;;;5117422;28;20092;-36
2021/03/16 09:20:33;;;;;;;14.25;3.35;;;9.30;56.80;;;;;;5117167;28;20114;-36
2021/03/16 09:23:01;;;;;;;9.35;1.88;;;9.10;57.80;;;;;;5115425;28;20604;-37
2021/03/16 09:25:32;;;;;;;9.60;2.03;;;8.90;57.80;;;;;;5117030;27;20340;-36
2021/03/16 09:28:01;;;;;;;12.48;2.58;;;9.30;56.60;;;;;;5116855;28;20459;-35
2021/03/16 09:30:42;;;;;;;6.15;1.50;;;10.00;54.30;;;;;;5116873;28;20019;-35
2021/03/16 09:33:10;;;;;;;7.57;1.30;;;10.50;53.00;;;;;;5116392;28;20020;-36
2021/03/16 09:35:36;;;;;;;10.98;3.20;;;10.80;51.90;;;;;;5116320;28;20081;-36
2021/03/16 09:38:05;;;;;;;2.88;1.13;;;10.50;52.50;;;;;;5116552;28;20475;-37
2021/03/16 09:40:37;;;;;;;9.98;1.58;;;10.00;53.70;;;;;;5116362;28;20033;-37
2021/03/16 09:43:23;;;;;;;12.45;2.40;;;9.80;55.10;;;;;;5115444;28;20023;-36
2021/03/16 09:45:57;;;;;;;6.03;2.25;;;11.30;51.50;;;;;;5116826;28;20099;-36
2021/03/16 09:48:23;;;;;;;3.38;1.00;;;11.00;50.40;;;;;;5116427;28;20051;-36
2021/03/16 09:50:50;;;;;;;7.00;1.13;;;11.00;50.80;;;;;;5116740;28;20487;-38
2021/03/16 09:53:19;;;;;;;4.20;1.20;;;11.10;50.50;;;;;;5116621;27;20406;-36
2021/03/16 09:55:48;;;;;;;3.47;1.38;;;10.90;50.80;;;;;;5116043;28;20027;-37
2021/03/16 09:58:21;;;;;;;6.80;1.40;;;11.10;49.80;;;;;;5116092;28;20041;-42
2021/03/16 10:00:48;;;;;;;3.95;1.50;;;10.60;51.40;;;;;;5116079;28;20023;-38
2021/03/16 10:03:16;;;;;;;4.32;1.95;;;10.60;51.80;;;;;;5116011;28;20031;-44
2021/03/16 10:05:41;;;;;;;12.05;2.28;;;9.30;55.70;;;;;;5116218;28;20023;-37
2021/03/16 10:08:07;;;;;;;8.13;1.45;;;8.80;59.00;;;;;;5116470;28;20020;-36
2021/03/16 10:10:37;;;;;;;8.02;2.40;;;9.20;58.70;;;;;;5116354;28;20023;-38
2021/03/16 10:13:05;;;;;;;3.83;1.52;;;8.60;61.10;;;;;;5116185;28;20051;-38
2021/03/16 10:15:36;;;;;;;13.15;2.78;;;8.30;63.10;;;;;;5114870;28;20412;-38
2021/03/16 10:18:10;;;;;;;9.40;1.73;;;8.10;66.00;;;;;;5116942;28;20483;-39
2021/03/16 10:20:41;;;;;;;8.55;2.10;;;7.80;69.10;;;;;;5116683;28;20500;-37
2021/03/16 10:23:10;;;;;;;;;;;8.00;69.00;;;;;;5116804;28;20026;-37
2021/03/16 10:25:37;;;;;;;5.90;1.63;;;8.30;68.40;;;;;;5115890;28;20375;-37
2021/03/16 10:28:07;;;;;;;8.85;2.05;;;8.30;69.30;;;;;;5116446;28;20028;-38
2021/03/16 10:30:42;;;;;;;9.18;3.20;;;8.50;69.50;;;;;;5115531;28;20513;-37
2021/03/16 10:33:09;;;;;;;8.93;2.08;;;8.70;70.00;;;;;;5115702;28;20039;-37
2021/03/16 10:35:37;;;;;;;8.98;2.00;;;8.60;69.30;;;;;;5116115;28;20026;-38
2021/03/16 10:38:04;;;;;;;4.85;1.75;;;8.40;70.70;;;;;;5115918;28;20024;-37
2021/03/16 10:40:31;;;;;;;9.93;2.30;;;8.60;70.30;;;;;;5117233;28;20202;-37
2021/03/16 10:42:57;;;;;;;5.80;1.75;;;8.30;70.60;;;;;;5097697;28;20064;-38
2021/03/16 10:45:24;;;;;;;4.75;1.70;;;8.20;70.90;;;;;;5115871;28;20055;-37
2021/03/16 10:47:50;;;;;;;9.25;2.13;;;8.30;69.30;;;;;;5115447;28;20039;-38
2021/03/16 10:50:16;;;;;;;4.75;1.27;;;8.20;68.70;;;;;;5116043;28;20371;-37
2021/03/16 10:52:42;;;;;;;5.47;0.73;;;8.30;66.90;;;;;;5115998;28;20023;-38
2021/03/16 10:55:08;;;;;;;2.83;1.17;;;8.70;65.10;;;;;;5115509;28;20024;-37
2021/03/16 10:57:34;;;;;;;7.60;1.70;;;8.80;64.60;;;;;;5115551;28;20051;-37
2021/03/16 11:00:01;;;;;;;5.32;1.05;;;8.80;64.50;;;;;;5115683;28;20027;-38
2021/03/16 11:02:26;;;;;;;7.43;1.35;;;9.00;63.00;;;;;;5115244;28;20114;-37
2021/03/16 11:04:52;;;;;;;5.85;1.20;;;8.60;63.70;;;;;;5114696;28;20102;-37
2021/03/16 11:07:18;;;;;;;6.28;1.38;;;8.50;64.00;;;;;;5115463;28;20023;-37
2021/03/16 11:09:43;;;;;;;5.65;1.58;;;8.70;63.20;;;;;;5114165;28;20024;-38
2021/03/16 11:12:09;;;;;;;4.22;1.25;;;9.20;62.00;;;;;;5115207;28;20020;-37
2021/03/16 11:14:35;;;;;;;8.20;1.55;;;9.00;62.70;;;;;;5115671;28;20028;-39
2021/03/16 11:17:01;;;;;;;5.22;1.52;;;9.00;62.50;;;;;;5113978;28;20383;-36
2021/03/16 11:19:26;;;;;;;7.90;4.63;;;8.70;65.60;;;;;;5115314;28;20115;-37
2021/03/16 11:21:52;;;;;;;8.75;2.10;;;8.10;69.00;;;;;;5115244;28;20027;-37
2021/03/16 11:24:18;;;;;;;8.75;1.30;;;8.20;69.20;;;;;;5115215;28;20175;-36
2021/03/16 11:26:45;;;;;;;4.60;1.08;;;8.10;69.60;;;;;;5114151;28;20369;-36
2021/03/16 11:29:10;;;;;;;7.88;1.17;;;8.40;66.50;;;;;;5114229;28;20536;-38
2021/03/16 11:31:37;;;;;;;8.30;1.73;;;8.30;65.30;;;;;;5114362;28;20020;-36
2021/03/16 11:34:02;;;;;;;4.65;1.13;;;8.80;64.00;;;;;;5114651;28;20038;-36
2021/03/16 11:36:28;;;;;;;7.88;1.52;;;9.00;63.80;;;;;;5114667;28;20015;-37
2021/03/16 11:38:54;;;;;;;6.85;1.50;;;9.40;62.80;;;;;;5114537;28;20028;-37
2021/03/16 11:41:19;;;;;;;6.90;1.58;;;9.60;60.00;;;;;;5114600;28;20107;-36
2021/03/16 11:43:45;;;;;;;5.90;1.70;;;9.60;60.10;;;;;;5114216;28;20020;-37
2021/03/16 11:46:11;;;;;;;1.58;1.15;;;9.50;61.80;;;;;;5114286;28;20024;-37
2021/03/16 11:48:37;;;;;;;6.60;1.40;;;9.40;62.80;;;;;;5112848;28;20483;-37
2021/03/16 11:51:04;;;;;;;6.32;2.55;;;9.70;59.80;;;;;;5114301;28;20027;-37
2021/03/16 11:53:30;;;;;;;8.73;1.35;;;9.80;59.30;;;;;;5114427;28;20380;-37
2021/03/16 11:55:57;;;;;;;9.25;2.50;;;9.70;60.10;;;;;;5114543;28;20023;-36
2021/03/16 11:58:23;;;;;;;11.50;3.08;;;9.60;61.10;;;;;;5114065;28;20217;-36
2021/03/16 12:00:48;;;;;;;11.38;2.13;;;9.60;62.40;;;;;;5114202;27;20475;-37
2021/03/16 12:03:14;;;;;;;8.00;1.70;;;9.70;60.60;;;;;;5112924;28;20028;-37
2021/03/16 12:05:40;;;;;;;5.53;1.33;;;10.20;59.50;;;;;;5114427;28;20349;-39
2021/03/16 12:08:05;;;;;;;5.68;1.75;;;9.70;61.40;;;;;;5114287;28;20026;-38
2021/03/16 12:10:31;;;;;;;3.83;1.90;;;9.30;62.50;;;;;;5114524;27;20102;-38
2021/03/16 12:12:57;;;;;;;8.38;1.27;;;9.30;63.80;;;;;;5114367;28;20024;-37
2021/03/16 12:15:23;;;;;;;6.15;2.05;;;7.90;70.00;;;;;;5113927;28;20024;-37
2021/03/16 12:17:49;;;;;;;4.18;2.08;;;5.80;78.40;;;;;;5112945;28;20027;-37
2021/03/16 12:20:15;;;;;;;5.88;1.08;;;5.40;81.50;;;;;;5114501;28;20121;-37
2021/03/16 12:22:41;;;;;;;5.55;2.35;;;5.50;81.90;;;;;;5112772;28;20027;-36
2021/03/16 12:25:08;;;;;;;5.03;1.27;;;5.60;82.50;;;;;;5113505;28;20032;-37
2021/03/16 12:27:34;;;;;;;5.88;1.30;;;5.70;82.80;;;;;;5113446;28;20035;-37
2021/03/16 12:30:00;;;;;;;2.72;1.13;;;5.80;82.20;;;;;;5114161;28;20032;-37
2021/03/16 12:32:26;;;;;;;7.00;1.10;;;5.90;83.10;;;;;;5113853;28;20023;-37
2021/03/16 12:34:51;;;;;;;2.33;1.40;;;6.00;82.00;;;;;;5113891;28;20064;-37
2021/03/16 12:37:18;;;;;;;7.82;1.98;;;6.10;83.30;;;;;;5113854;28;20019;-37
2021/03/16 12:39:44;;;;;;;4.25;1.35;;;6.10;82.60;;;;;;5113400;28;20027;-38
2021/03/16 12:42:10;;;;;;;12.55;1.95;;;6.30;83.60;;;;;;5112232;28;20024;-38
2021/03/16 12:44:36;;;;;;;6.45;2.40;;;6.30;82.70;;;;;;5113571;28;20026;-38
2021/03/16 12:47:06;;;;;;;6.40;1.55;;;6.50;81.50;;;;;;5113816;28;20165;-37
2021/03/16 12:49:33;;;;;;;8.10;1.85;;;6.80;81.10;;;;;;5114098;28;20044;-36
2021/03/16 12:51:59;;;;;;;6.63;1.55;;;7.00;79.90;;;;;;5113592;28;20031;-37
2021/03/16 12:54:25;;;;;;;7.10;1.88;;;6.80;81.10;;;;;;5113900;28;20039;-38
2021/03/16 12:56:52;;;;;;;3.17;1.70;;;6.90;81.60;;;;;;5113297;28;20020;-37